sensor_id;sensor_type;location;lat;lon;timestamp;P1;P2;P0
67714;PMS7003;54505;44.022;20.458;2023-01-19T00:01:22;129.00;111.50;66.75
67714;PMS7003;54505;44.022;20.458;2023-01-19T00:03:48;123.75;104.75;64.00
67714;PMS7003;54505;44.022;20.458;2023-01-19T00:06:14;122.25;103.75;62.25
67714;PMS7003;54505;44.022;20.458;2023-01-19T00:08:39;121.00;104.75;63.75
67714;PMS7003;54505;44.022;20.458;2023-01-19T00:11:05;116.25;99.75;61.75
67714;PMS7003;54505;44.022;20.458;2023-01-19T00:13:31;101.75;86.00;57.25
67714;PMS7003;54505;44.022;20.458;2023-01-19T00:15:57;121.75;101.75;66.25
67714;PMS7003;54505;44.022;20.458;2023-01-19T00:18:22;119.00;103.25;61.75
67714;PMS7003;54505;44.022;20.458;2023-01-19T00:20:48;124.25;102.25;65.00
67714;PMS7003;54505;44.022;20.458;2023-01-19T00:23:14;141.00;119.50;75.00
67714;PMS7003;54505;44.022;20.458;2023-01-19T00:25:40;124.50;110.00;66.25
67714;PMS7003;54505;44.022;20.458;2023-01-19T00:28:10;145.00;121.50;69.50
67714;PMS7003;54505;44.022;20.458;2023-01-19T00:30:36;136.25;120.25;75.00
67714;PMS7003;54505;44.022;20.458;2023-01-19T00:33:02;151.25;128.00;72.50
67714;PMS7003;54505;44.022;20.458;2023-01-19T00:35:28;113.00;95.00;55.00
67714;PMS7003;54505;44.022;20.458;2023-01-19T00:37:57;80.25;58.50;36.00
67714;PMS7003;54505;44.022;20.458;2023-01-19T00:40:23;30.75;26.50;19.00
67714;PMS7003;54505;44.022;20.458;2023-01-19T00:42:49;7.25;6.75;4.50
67714;PMS7003;54505;44.022;20.458;2023-01-19T00:45:16;9.75;7.50;4.75
67714;PMS7003;54505;44.022;20.458;2023-01-19T00:47:43;9.75;9.75;5.25
67714;PMS7003;54505;44.022;20.458;2023-01-19T00:50:09;7.75;6.25;4.00
67714;PMS7003;54505;44.022;20.458;2023-01-19T00:52:41;3.00;3.00;2.75
67714;PMS7003;54505;44.022;20.458;2023-01-19T00:55:12;3.25;2.00;1.75
67714;PMS7003;54505;44.022;20.458;2023-01-19T00:57:38;1.25;1.25;1.00
67714;PMS7003;54505;44.022;20.458;2023-01-19T01:00:05;2.00;2.00;1.00
67714;PMS7003;54505;44.022;20.458;2023-01-19T01:02:31;1.00;1.00;1.00
67714;PMS7003;54505;44.022;20.458;2023-01-19T01:04:57;0.25;0.25;0.25
67714;PMS7003;54505;44.022;20.458;2023-01-19T01:07:27;2.00;1.00;1.00
67714;PMS7003;54505;44.022;20.458;2023-01-19T01:09:53;1.00;1.00;1.00
67714;PMS7003;54505;44.022;20.458;2023-01-19T01:12:18;2.00;0.00;0.00
67714;PMS7003;54505;44.022;20.458;2023-01-19T01:14:44;0.00;0.00;0.00
67714;PMS7003;54505;44.022;20.458;2023-01-19T01:17:10;1.00;1.00;0.00
67714;PMS7003;54505;44.022;20.458;2023-01-19T01:19:39;1.00;1.00;1.00
67714;PMS7003;54505;44.022;20.458;2023-01-19T01:22:04;2.75;1.00;1.00
67714;PMS7003;54505;44.022;20.458;2023-01-19T01:24:30;0.00;0.00;0.00
67714;PMS7003;54505;44.022;20.458;2023-01-19T01:26:56;2.00;0.75;0.75
67714;PMS7003;54505;44.022;20.458;2023-01-19T01:29:22;2.50;0.25;0.00
67714;PMS7003;54505;44.022;20.458;2023-01-19T01:31:47;2.25;1.00;1.00
67714;PMS7003;54505;44.022;20.458;2023-01-19T01:34:13;1.00;1.00;1.00
67714;PMS7003;54505;44.022;20.458;2023-01-19T01:36:38;1.00;1.00;0.50
67714;PMS7003;54505;44.022;20.458;2023-01-19T01:39:04;1.50;1.00;1.00
67714;PMS7003;54505;44.022;20.458;2023-01-19T01:41:30;4.25;2.00;1.00
67714;PMS7003;54505;44.022;20.458;2023-01-19T01:43:56;0.25;0.25;0.00
67714;PMS7003;54505;44.022;20.458;2023-01-19T01:46:26;2.50;0.75;0.50
67714;PMS7003;54505;44.022;20.458;2023-01-19T01:48:59;3.00;1.00;1.00
67714;PMS7003;54505;44.022;20.458;2023-01-19T01:51:28;0.50;0.50;0.50
67714;PMS7003;54505;44.022;20.458;2023-01-19T01:56:35;2.25;1.00;0.75
67714;PMS7003;54505;44.022;20.458;2023-01-19T01:59:03;0.00;0.00;0.00
67714;PMS7003;54505;44.022;20.458;2023-01-19T02:01:30;0.00;0.00;0.00
67714;PMS7003;54505;44.022;20.458;2023-01-19T02:04:15;1.50;0.00;0.00
67714;PMS7003;54505;44.022;20.458;2023-01-19T02:06:40;0.00;0.00;0.00
67714;PMS7003;54505;44.022;20.458;2023-01-19T02:09:25;1.00;0.75;0.00
67714;PMS7003;54505;44.022;20.458;2023-01-19T02:12:12;2.00;2.00;1.00
67714;PMS7003;54505;44.022;20.458;2023-01-19T02:14:56;0.00;0.00;0.00
67714;PMS7003;54505;44.022;20.458;2023-01-19T02:17:21;0.50;0.50;0.00
67714;PMS7003;54505;44.022;20.458;2023-01-19T02:19:48;3.50;2.25;1.25
67714;PMS7003;54505;44.022;20.458;2023-01-19T02:22:14;8.50;1.50;0.75
67714;PMS7003;54505;44.022;20.458;2023-01-19T02:24:42;1.25;0.00;0.00
67714;PMS7003;54505;44.022;20.458;2023-01-19T02:27:07;1.00;1.00;0.00
67714;PMS7003;54505;44.022;20.458;2023-01-19T02:29:34;0.00;0.00;0.00
67714;PMS7003;54505;44.022;20.458;2023-01-19T02:32:00;0.00;0.00;0.00
67714;PMS7003;54505;44.022;20.458;2023-01-19T02:34:26;2.50;1.50;1.00
67714;PMS7003;54505;44.022;20.458;2023-01-19T02:39:19;1.00;1.00;0.00
67714;PMS7003;54505;44.022;20.458;2023-01-19T02:41:50;1.50;1.50;1.00
67714;PMS7003;54505;44.022;20.458;2023-01-19T02:44:18;0.25;0.25;0.00
67714;PMS7003;54505;44.022;20.458;2023-01-19T02:46:45;6.75;3.75;2.50
67714;PMS7003;54505;44.022;20.458;2023-01-19T02:49:11;8.00;4.50;2.50
67714;PMS7003;54505;44.022;20.458;2023-01-19T02:51:37;5.00;4.00;3.00
67714;PMS7003;54505;44.022;20.458;2023-01-19T03:01:36;0.00;0.00;0.00
67714;PMS7003;54505;44.022;20.458;2023-01-19T03:06:42;0.50;0.50;0.50
67714;PMS7003;54505;44.022;20.458;2023-01-19T03:11:38;8.50;8.50;7.50
67714;PMS7003;54505;44.022;20.458;2023-01-19T03:14:13;4.00;3.00;2.00
67714;PMS7003;54505;44.022;20.458;2023-01-19T03:16:50;3.75;3.50;2.50
67714;PMS7003;54505;44.022;20.458;2023-01-19T03:19:24;7.00;4.00;3.75
67714;PMS7003;54505;44.022;20.458;2023-01-19T03:21:55;3.00;3.00;2.00
67714;PMS7003;54505;44.022;20.458;2023-01-19T03:24:22;2.75;1.25;1.00
67714;PMS7003;54505;44.022;20.458;2023-01-19T03:26:53;0.75;0.75;0.00
67714;PMS7003;54505;44.022;20.458;2023-01-19T03:29:23;1.00;1.00;1.00
67714;PMS7003;54505;44.022;20.458;2023-01-19T03:31:52;0.25;0.25;0.00
67714;PMS7003;54505;44.022;20.458;2023-01-19T03:34:18;1.50;1.50;0.00
67714;PMS7003;54505;44.022;20.458;2023-01-19T03:36:49;0.00;0.00;0.00
67714;PMS7003;54505;44.022;20.458;2023-01-19T03:39:23;0.00;0.00;0.00
67714;PMS7003;54505;44.022;20.458;2023-01-19T03:41:51;0.00;0.00;0.00
67714;PMS7003;54505;44.022;20.458;2023-01-19T03:44:17;0.00;0.00;0.00
67714;PMS7003;54505;44.022;20.458;2023-01-19T03:46:43;0.25;0.25;0.00
67714;PMS7003;54505;44.022;20.458;2023-01-19T03:49:10;0.00;0.00;0.00
67714;PMS7003;54505;44.022;20.458;2023-01-19T03:51:36;0.00;0.00;0.00
67714;PMS7003;54505;44.022;20.458;2023-01-19T03:54:03;1.00;1.00;0.00
67714;PMS7003;54505;44.022;20.458;2023-01-19T03:56:29;2.75;1.25;1.00
67714;PMS7003;54505;44.022;20.458;2023-01-19T03:58:55;3.00;1.50;0.25
67714;PMS7003;54505;44.022;20.458;2023-01-19T04:01:21;1.00;1.00;0.00
67714;PMS7003;54505;44.022;20.458;2023-01-19T04:03:50;0.00;0.00;0.00
67714;PMS7003;54505;44.022;20.458;2023-01-19T04:06:16;0.00;0.00;0.00
67714;PMS7003;54505;44.022;20.458;2023-01-19T04:08:42;0.00;0.00;0.00
67714;PMS7003;54505;44.022;20.458;2023-01-19T04:11:07;0.00;0.00;0.00
67714;PMS7003;54505;44.022;20.458;2023-01-19T04:13:34;0.00;0.00;0.00
67714;PMS7003;54505;44.022;20.458;2023-01-19T04:16:00;1.00;0.00;0.00
67714;PMS7003;54505;44.022;20.458;2023-01-19T04:18:26;0.00;0.00;0.00
67714;PMS7003;54505;44.022;20.458;2023-01-19T04:20:52;1.00;1.00;1.00
67714;PMS7003;54505;44.022;20.458;2023-01-19T04:23:18;2.75;2.00;1.00
67714;PMS7003;54505;44.022;20.458;2023-01-19T04:25:44;0.75;0.75;0.00
67714;PMS7003;54505;44.022;20.458;2023-01-19T04:28:10;0.75;0.00;0.00
67714;PMS7003;54505;44.022;20.458;2023-01-19T04:30:36;0.00;0.00;0.00
67714;PMS7003;54505;44.022;20.458;2023-01-19T04:33:01;0.00;0.00;0.00
67714;PMS7003;54505;44.022;20.458;2023-01-19T04:35:27;0.00;0.00;0.00
67714;PMS7003;54505;44.022;20.458;2023-01-19T04:37:53;0.00;0.00;0.00
67714;PMS7003;54505;44.022;20.458;2023-01-19T04:40:18;1.75;0.00;0.00
67714;PMS7003;54505;44.022;20.458;2023-01-19T04:42:44;0.00;0.00;0.00
67714;PMS7003;54505;44.022;20.458;2023-01-19T04:45:11;0.00;0.00;0.00
67714;PMS7003;54505;44.022;20.458;2023-01-19T04:47:37;0.00;0.00;0.00
67714;PMS7003;54505;44.022;20.458;2023-01-19T04:50:02;0.00;0.00;0.00
67714;PMS7003;54505;44.022;20.458;2023-01-19T04:52:31;0.00;0.00;0.00
67714;PMS7003;54505;44.022;20.458;2023-01-19T04:55:02;0.00;0.00;0.00
67714;PMS7003;54505;44.022;20.458;2023-01-19T04:57:29;0.50;0.00;0.00
67714;PMS7003;54505;44.022;20.458;2023-01-19T04:59:55;1.50;1.00;0.00
67714;PMS7003;54505;44.022;20.458;2023-01-19T05:02:21;1.00;0.00;0.00
67714;PMS7003;54505;44.022;20.458;2023-01-19T05:04:47;1.00;0.00;0.00
67714;PMS7003;54505;44.022;20.458;2023-01-19T05:07:13;2.00;0.75;0.25
67714;PMS7003;54505;44.022;20.458;2023-01-19T05:09:39;1.25;0.25;0.00
67714;PMS7003;54505;44.022;20.458;2023-01-19T05:12:04;0.00;0.00;0.00
67714;PMS7003;54505;44.022;20.458;2023-01-19T05:14:30;0.00;0.00;0.00
67714;PMS7003;54505;44.022;20.458;2023-01-19T05:16:56;0.00;0.00;0.00
67714;PMS7003;54505;44.022;20.458;2023-01-19T05:19:21;0.00;0.00;0.00
67714;PMS7003;54505;44.022;20.458;2023-01-19T05:21:48;0.00;0.00;0.00
67714;PMS7003;54505;44.022;20.458;2023-01-19T05:24:13;0.00;0.00;0.00
67714;PMS7003;54505;44.022;20.458;2023-01-19T05:26:40;0.00;0.00;0.00
67714;PMS7003;54505;44.022;20.458;2023-01-19T05:29:06;2.00;0.00;0.00
67714;PMS7003;54505;44.022;20.458;2023-01-19T05:31:33;1.50;0.00;0.00
67714;PMS7003;54505;44.022;20.458;2023-01-19T05:33:58;0.75;0.75;0.00
67714;PMS7003;54505;44.022;20.458;2023-01-19T05:36:24;1.00;1.00;1.00
67714;PMS7003;54505;44.022;20.458;2023-01-19T05:38:49;1.00;1.00;0.00
67714;PMS7003;54505;44.022;20.458;2023-01-19T05:41:15;0.00;0.00;0.00
67714;PMS7003;54505;44.022;20.458;2023-01-19T05:43:42;0.00;0.00;0.00
67714;PMS7003;54505;44.022;20.458;2023-01-19T05:46:07;0.00;0.00;0.00
67714;PMS7003;54505;44.022;20.458;2023-01-19T05:48:33;4.00;2.00;1.00
67714;PMS7003;54505;44.022;20.458;2023-01-19T05:50:59;1.50;1.00;0.00
67714;PMS7003;54505;44.022;20.458;2023-01-19T05:53:25;1.00;1.00;0.00
67714;PMS7003;54505;44.022;20.458;2023-01-19T05:55:51;6.50;6.50;4.00
67714;PMS7003;54505;44.022;20.458;2023-01-19T05:58:17;10.50;7.75;7.00
67714;PMS7003;54505;44.022;20.458;2023-01-19T06:00:43;16.50;12.50;7.75
67714;PMS7003;54505;44.022;20.458;2023-01-19T06:03:08;22.75;17.00;11.75
67714;PMS7003;54505;44.022;20.458;2023-01-19T06:05:34;12.25;10.50;8.00
67714;PMS7003;54505;44.022;20.458;2023-01-19T06:08:02;14.75;14.50;10.75
67714;PMS7003;54505;44.022;20.458;2023-01-19T06:10:28;5.25;5.25;4.00
67714;PMS7003;54505;44.022;20.458;2023-01-19T06:12:54;3.25;1.00;1.00
67714;PMS7003;54505;44.022;20.458;2023-01-19T06:15:19;7.50;5.00;4.00
67714;PMS7003;54505;44.022;20.458;2023-01-19T06:17:45;6.75;6.75;3.00
67714;PMS7003;54505;44.022;20.458;2023-01-19T06:20:11;7.00;4.00;3.25
67714;PMS7003;54505;44.022;20.458;2023-01-19T06:22:38;7.00;4.75;3.25
67714;PMS7003;54505;44.022;20.458;2023-01-19T06:25:04;8.00;7.00;5.25
67714;PMS7003;54505;44.022;20.458;2023-01-19T06:27:29;10.00;9.00;7.75
67714;PMS7003;54505;44.022;20.458;2023-01-19T06:29:55;17.25;13.75;8.75
67714;PMS7003;54505;44.022;20.458;2023-01-19T06:32:20;14.00;9.25;6.25
67714;PMS7003;54505;44.022;20.458;2023-01-19T06:34:46;2.00;2.00;1.50
67714;PMS7003;54505;44.022;20.458;2023-01-19T06:37:12;7.00;2.00;1.75
67714;PMS7003;54505;44.022;20.458;2023-01-19T06:39:40;1.00;1.00;0.25
67714;PMS7003;54505;44.022;20.458;2023-01-19T06:42:06;0.75;0.75;0.75
67714;PMS7003;54505;44.022;20.458;2023-01-19T06:44:32;4.00;4.00;2.00
67714;PMS7003;54505;44.022;20.458;2023-01-19T06:46:58;3.00;2.50;1.25
67714;PMS7003;54505;44.022;20.458;2023-01-19T06:49:24;3.50;2.00;1.75
67714;PMS7003;54505;44.022;20.458;2023-01-19T06:51:49;2.75;2.75;1.00
67714;PMS7003;54505;44.022;20.458;2023-01-19T06:54:15;3.75;2.75;2.00
67714;PMS7003;54505;44.022;20.458;2023-01-19T06:56:41;5.50;4.50;2.50
67714;PMS7003;54505;44.022;20.458;2023-01-19T06:59:06;10.00;6.00;3.00
67714;PMS7003;54505;44.022;20.458;2023-01-19T07:01:32;6.25;3.00;2.00
67714;PMS7003;54505;44.022;20.458;2023-01-19T07:03:58;3.00;3.00;2.00
67714;PMS7003;54505;44.022;20.458;2023-01-19T07:06:23;11.75;9.50;7.00
67714;PMS7003;54505;44.022;20.458;2023-01-19T07:08:49;22.00;16.25;11.25
67714;PMS7003;54505;44.022;20.458;2023-01-19T07:11:15;11.00;5.00;3.50
67714;PMS7003;54505;44.022;20.458;2023-01-19T07:13:41;0.00;0.00;0.00
67714;PMS7003;54505;44.022;20.458;2023-01-19T07:16:12;1.00;0.00;0.00
67714;PMS7003;54505;44.022;20.458;2023-01-19T07:18:38;3.00;1.00;1.00
67714;PMS7003;54505;44.022;20.458;2023-01-19T07:21:05;1.00;1.00;1.00
67714;PMS7003;54505;44.022;20.458;2023-01-19T07:23:31;0.00;0.00;0.00
67714;PMS7003;54505;44.022;20.458;2023-01-19T07:25:57;2.00;1.00;0.00
67714;PMS7003;54505;44.022;20.458;2023-01-19T07:28:23;6.50;4.25;2.50
67714;PMS7003;54505;44.022;20.458;2023-01-19T07:30:52;3.00;1.00;1.00
67714;PMS7003;54505;44.022;20.458;2023-01-19T07:33:18;1.00;1.00;1.00
67714;PMS7003;54505;44.022;20.458;2023-01-19T07:35:46;2.75;2.00;1.25
67714;PMS7003;54505;44.022;20.458;2023-01-19T07:38:13;2.75;2.75;2.00
67714;PMS7003;54505;44.022;20.458;2023-01-19T07:40:38;2.00;1.00;1.00
67714;PMS7003;54505;44.022;20.458;2023-01-19T07:43:04;4.00;3.00;2.00
67714;PMS7003;54505;44.022;20.458;2023-01-19T07:45:30;4.25;4.25;2.50
67714;PMS7003;54505;44.022;20.458;2023-01-19T07:47:56;4.00;3.00;2.00
67714;PMS7003;54505;44.022;20.458;2023-01-19T07:50:22;3.25;3.00;2.00
67714;PMS7003;54505;44.022;20.458;2023-01-19T07:52:50;5.00;3.00;2.75
67714;PMS7003;54505;44.022;20.458;2023-01-19T07:55:20;5.75;4.50;3.00
67714;PMS7003;54505;44.022;20.458;2023-01-19T07:57:47;8.50;8.50;4.00
67714;PMS7003;54505;44.022;20.458;2023-01-19T08:00:15;12.00;10.50;7.75
67714;PMS7003;54505;44.022;20.458;2023-01-19T08:02:43;10.00;10.00;5.75
67714;PMS7003;54505;44.022;20.458;2023-01-19T08:05:09;12.00;9.50;6.00
67714;PMS7003;54505;44.022;20.458;2023-01-19T08:07:35;13.75;12.25;9.00
67714;PMS7003;54505;44.022;20.458;2023-01-19T08:10:00;16.00;12.25;9.00
67714;PMS7003;54505;44.022;20.458;2023-01-19T08:12:26;13.50;10.25;6.75
67714;PMS7003;54505;44.022;20.458;2023-01-19T08:14:52;10.25;9.50;5.00
67714;PMS7003;54505;44.022;20.458;2023-01-19T08:17:18;9.00;7.75;5.00
67714;PMS7003;54505;44.022;20.458;2023-01-19T08:19:43;9.00;4.00;3.25
67714;PMS7003;54505;44.022;20.458;2023-01-19T08:22:09;8.00;8.00;3.50
67714;PMS7003;54505;44.022;20.458;2023-01-19T08:24:35;3.25;3.25;2.50
67714;PMS7003;54505;44.022;20.458;2023-01-19T08:27:01;4.75;3.00;2.50
67714;PMS7003;54505;44.022;20.458;2023-01-19T08:29:26;6.00;5.00;3.50
67714;PMS7003;54505;44.022;20.458;2023-01-19T08:31:55;6.00;5.00;3.25
67714;PMS7003;54505;44.022;20.458;2023-01-19T08:34:23;9.00;9.00;6.25
67714;PMS7003;54505;44.022;20.458;2023-01-19T08:36:48;8.50;8.25;7.50
67714;PMS7003;54505;44.022;20.458;2023-01-19T08:39:14;5.75;5.75;2.25
67714;PMS7003;54505;44.022;20.458;2023-01-19T08:41:40;3.00;2.75;2.50
67714;PMS7003;54505;44.022;20.458;2023-01-19T08:44:05;2.00;2.00;2.00
67714;PMS7003;54505;44.022;20.458;2023-01-19T08:46:31;8.50;5.00;2.50
67714;PMS7003;54505;44.022;20.458;2023-01-19T08:48:56;5.00;3.00;2.00
67714;PMS7003;54505;44.022;20.458;2023-01-19T08:51:22;2.25;2.25;1.75
67714;PMS7003;54505;44.022;20.458;2023-01-19T08:53:48;4.75;3.00;2.00
67714;PMS7003;54505;44.022;20.458;2023-01-19T08:56:14;5.75;4.00;3.00
67714;PMS7003;54505;44.022;20.458;2023-01-19T08:58:40;3.00;3.00;2.00
67714;PMS7003;54505;44.022;20.458;2023-01-19T09:01:06;2.75;1.75;1.00
67714;PMS7003;54505;44.022;20.458;2023-01-19T09:03:33;3.00;2.00;1.00
67714;PMS7003;54505;44.022;20.458;2023-01-19T09:05:59;3.00;1.25;0.25
67714;PMS7003;54505;44.022;20.458;2023-01-19T09:08:25;3.00;3.00;2.00
67714;PMS7003;54505;44.022;20.458;2023-01-19T09:10:51;2.75;1.75;1.75
67714;PMS7003;54505;44.022;20.458;2023-01-19T09:13:19;0.00;0.00;0.00
67714;PMS7003;54505;44.022;20.458;2023-01-19T09:15:44;2.00;2.00;2.00
67714;PMS7003;54505;44.022;20.458;2023-01-19T09:18:12;3.50;3.50;3.00
67714;PMS7003;54505;44.022;20.458;2023-01-19T09:20:39;8.75;5.00;3.75
67714;PMS7003;54505;44.022;20.458;2023-01-19T09:23:07;7.00;4.75;3.00
67714;PMS7003;54505;44.022;20.458;2023-01-19T09:25:36;2.00;2.00;1.50
67714;PMS7003;54505;44.022;20.458;2023-01-19T09:28:02;3.50;2.00;1.25
67714;PMS7003;54505;44.022;20.458;2023-01-19T09:30:28;3.00;2.00;1.00
67714;PMS7003;54505;44.022;20.458;2023-01-19T09:32:54;2.25;1.25;0.25
67714;PMS7003;54505;44.022;20.458;2023-01-19T09:35:20;4.50;2.25;2.00
67714;PMS7003;54505;44.022;20.458;2023-01-19T09:37:46;11.00;8.00;6.00
67714;PMS7003;54505;44.022;20.458;2023-01-19T09:40:12;12.00;9.75;5.25
67714;PMS7003;54505;44.022;20.458;2023-01-19T09:42:41;5.75;3.50;2.75
67714;PMS7003;54505;44.022;20.458;2023-01-19T09:45:27;9.00;6.75;5.00
67714;PMS7003;54505;44.022;20.458;2023-01-19T09:47:53;19.75;14.25;9.25
67714;PMS7003;54505;44.022;20.458;2023-01-19T09:50:24;18.50;18.25;11.00
67714;PMS7003;54505;44.022;20.458;2023-01-19T09:52:55;23.75;21.50;14.00
67714;PMS7003;54505;44.022;20.458;2023-01-19T09:55:22;16.00;10.00;7.50
67714;PMS7003;54505;44.022;20.458;2023-01-19T09:57:49;7.25;5.50;4.25
67714;PMS7003;54505;44.022;20.458;2023-01-19T10:00:16;11.00;7.00;5.00
67714;PMS7003;54505;44.022;20.458;2023-01-19T10:10:27;7.25;6.00;4.00
67714;PMS7003;54505;44.022;20.458;2023-01-19T10:18:25;10.00;9.75;6.25
67714;PMS7003;54505;44.022;20.458;2023-01-19T10:21:08;9.50;9.50;6.75
67714;PMS7003;54505;44.022;20.458;2023-01-19T10:28:36;5.25;4.25;3.00
67714;PMS7003;54505;44.022;20.458;2023-01-19T10:31:03;4.50;4.50;3.50
67714;PMS7003;54505;44.022;20.458;2023-01-19T10:33:31;11.25;4.50;3.00
67714;PMS7003;54505;44.022;20.458;2023-01-19T10:35:57;10.00;6.00;3.50
67714;PMS7003;54505;44.022;20.458;2023-01-19T10:38:22;10.50;7.00;4.00
67714;PMS7003;54505;44.022;20.458;2023-01-19T10:41:05;3.00;3.00;2.50
67714;PMS7003;54505;44.022;20.458;2023-01-19T10:43:44;4.75;4.75;3.50
67714;PMS7003;54505;44.022;20.458;2023-01-19T10:48:42;9.50;6.50;4.00
67714;PMS7003;54505;44.022;20.458;2023-01-19T10:51:09;2.75;2.75;1.25
67714;PMS7003;54505;44.022;20.458;2023-01-19T10:53:35;4.75;2.75;2.25
67714;PMS7003;54505;44.022;20.458;2023-01-19T10:56:12;2.50;1.00;0.75
67714;PMS7003;54505;44.022;20.458;2023-01-19T10:58:38;10.25;4.75;3.00
67714;PMS7003;54505;44.022;20.458;2023-01-19T11:01:19;3.50;2.00;1.00
67714;PMS7003;54505;44.022;20.458;2023-01-19T11:03:45;6.25;5.25;3.00
67714;PMS7003;54505;44.022;20.458;2023-01-19T11:08:40;4.75;2.75;2.00
67714;PMS7003;54505;44.022;20.458;2023-01-19T11:11:06;0.00;0.00;0.00
67714;PMS7003;54505;44.022;20.458;2023-01-19T11:13:40;2.25;1.25;1.00
67714;PMS7003;54505;44.022;20.458;2023-01-19T11:18:43;1.00;0.00;0.00
67714;PMS7003;54505;44.022;20.458;2023-01-19T11:21:12;6.00;3.00;3.00
67714;PMS7003;54505;44.022;20.458;2023-01-19T11:26:08;6.00;3.00;1.50
67714;PMS7003;54505;44.022;20.458;2023-01-19T11:28:35;11.50;5.00;3.00
67714;PMS7003;54505;44.022;20.458;2023-01-19T11:31:15;4.00;4.00;3.00
67714;PMS7003;54505;44.022;20.458;2023-01-19T11:33:42;1.75;1.75;1.00
67714;PMS7003;54505;44.022;20.458;2023-01-19T11:38:42;2.75;2.75;2.00
67714;PMS7003;54505;44.022;20.458;2023-01-19T11:41:13;3.75;3.75;2.25
67714;PMS7003;54505;44.022;20.458;2023-01-19T11:43:40;2.25;0.00;0.00
67714;PMS7003;54505;44.022;20.458;2023-01-19T11:46:07;3.00;2.25;1.00
67714;PMS7003;54505;44.022;20.458;2023-01-19T11:49:11;3.25;2.00;0.25
67714;PMS7003;54505;44.022;20.458;2023-01-19T11:51:27;6.00;6.00;3.75
67714;PMS7003;54505;44.022;20.458;2023-01-19T11:53:55;8.75;8.50;6.25
67714;PMS7003;54505;44.022;20.458;2023-01-19T11:56:22;5.50;4.00;2.25
67714;PMS7003;54505;44.022;20.458;2023-01-19T11:58:48;9.25;4.00;2.25
67714;PMS7003;54505;44.022;20.458;2023-01-19T12:01:28;6.75;4.75;3.75
67714;PMS7003;54505;44.022;20.458;2023-01-19T12:04:02;7.50;4.00;2.25
67714;PMS7003;54505;44.022;20.458;2023-01-19T12:06:30;2.00;1.00;1.00
67714;PMS7003;54505;44.022;20.458;2023-01-19T12:11:31;3.25;0.00;0.00
67714;PMS7003;54505;44.022;20.458;2023-01-19T12:13:58;2.00;1.00;0.00
67714;PMS7003;54505;44.022;20.458;2023-01-19T12:16:29;0.50;0.50;0.50
67714;PMS7003;54505;44.022;20.458;2023-01-19T12:19:02;2.00;2.00;1.75
67714;PMS7003;54505;44.022;20.458;2023-01-19T12:21:29;6.75;4.00;3.00
67714;PMS7003;54505;44.022;20.458;2023-01-19T12:23:58;5.50;3.00;3.00
67714;PMS7003;54505;44.022;20.458;2023-01-19T12:26:29;1.00;1.00;1.00
67714;PMS7003;54505;44.022;20.458;2023-01-19T12:28:58;1.00;1.00;0.00
67714;PMS7003;54505;44.022;20.458;2023-01-19T12:31:25;1.25;1.00;0.00
67714;PMS7003;54505;44.022;20.458;2023-01-19T12:33:51;2.00;1.00;1.00
67714;PMS7003;54505;44.022;20.458;2023-01-19T12:39:01;2.25;2.25;2.00
67714;PMS7003;54505;44.022;20.458;2023-01-19T12:41:29;6.75;3.50;2.50
67714;PMS7003;54505;44.022;20.458;2023-01-19T12:51:42;4.75;4.75;3.00
67714;PMS7003;54505;44.022;20.458;2023-01-19T12:54:08;2.00;1.00;1.00
67714;PMS7003;54505;44.022;20.458;2023-01-19T12:56:43;3.25;1.00;1.00
67714;PMS7003;54505;44.022;20.458;2023-01-19T12:59:17;3.50;3.50;3.00
67714;PMS7003;54505;44.022;20.458;2023-01-19T13:02:39;6.75;5.50;4.00
67714;PMS7003;54505;44.022;20.458;2023-01-19T13:04:36;7.00;5.50;3.75
67714;PMS7003;54505;44.022;20.458;2023-01-19T13:07:06;6.00;4.50;3.25
67714;PMS7003;54505;44.022;20.458;2023-01-19T13:09:35;4.50;3.50;2.75
67714;PMS7003;54505;44.022;20.458;2023-01-19T13:14:40;1.50;1.00;0.00
67714;PMS7003;54505;44.022;20.458;2023-01-19T13:17:25;1.50;1.00;1.00
67714;PMS7003;54505;44.022;20.458;2023-01-19T13:20:04;0.25;0.25;0.00
67714;PMS7003;54505;44.022;20.458;2023-01-19T13:25:20;3.00;1.75;1.00
67714;PMS7003;54505;44.022;20.458;2023-01-19T13:27:48;4.00;3.00;2.00
67714;PMS7003;54505;44.022;20.458;2023-01-19T13:30:14;8.00;5.75;3.00
67714;PMS7003;54505;44.022;20.458;2023-01-19T13:32:42;4.00;1.00;1.00
67714;PMS7003;54505;44.022;20.458;2023-01-19T13:35:12;8.50;6.00;5.50
67714;PMS7003;54505;44.022;20.458;2023-01-19T13:37:39;6.00;5.50;4.00
67714;PMS7003;54505;44.022;20.458;2023-01-19T13:40:06;5.50;5.00;3.00
67714;PMS7003;54505;44.022;20.458;2023-01-19T13:42:36;9.50;8.50;6.00
67714;PMS7003;54505;44.022;20.458;2023-01-19T13:48:03;9.50;8.25;5.75
67714;PMS7003;54505;44.022;20.458;2023-01-19T13:50:31;16.25;14.50;10.50
67714;PMS7003;54505;44.022;20.458;2023-01-19T13:52:57;25.25;19.50;12.25
67714;PMS7003;54505;44.022;20.458;2023-01-19T13:55:24;3.00;2.00;1.00
67714;PMS7003;54505;44.022;20.458;2023-01-19T13:57:52;12.25;7.00;5.50
67714;PMS7003;54505;44.022;20.458;2023-01-19T14:00:24;12.25;9.00;7.00
67714;PMS7003;54505;44.022;20.458;2023-01-19T14:03:00;20.00;15.75;10.25
67714;PMS7003;54505;44.022;20.458;2023-01-19T14:05:29;14.25;9.25;5.75
67714;PMS7003;54505;44.022;20.458;2023-01-19T14:10:24;1.00;1.00;0.00
67714;PMS7003;54505;44.022;20.458;2023-01-19T14:13:00;4.00;2.25;2.00
67714;PMS7003;54505;44.022;20.458;2023-01-19T14:15:26;6.75;6.00;4.00
67714;PMS7003;54505;44.022;20.458;2023-01-19T14:18:09;3.50;3.00;2.25
67714;PMS7003;54505;44.022;20.458;2023-01-19T14:20:34;3.75;2.75;2.00
67714;PMS7003;54505;44.022;20.458;2023-01-19T14:23:03;14.00;12.25;8.50
67714;PMS7003;54505;44.022;20.458;2023-01-19T14:25:33;11.25;10.75;7.00
67714;PMS7003;54505;44.022;20.458;2023-01-19T14:30:59;15.50;12.75;7.75
67714;PMS7003;54505;44.022;20.458;2023-01-19T14:33:38;17.00;12.50;8.25
67714;PMS7003;54505;44.022;20.458;2023-01-19T14:36:09;17.50;14.00;10.50
67714;PMS7003;54505;44.022;20.458;2023-01-19T14:38:35;6.50;5.75;4.00
67714;PMS7003;54505;44.022;20.458;2023-01-19T14:41:00;3.50;2.75;1.25
67714;PMS7003;54505;44.022;20.458;2023-01-19T14:43:26;4.25;4.25;2.25
67714;PMS7003;54505;44.022;20.458;2023-01-19T14:45:53;7.25;7.00;4.25
67714;PMS7003;54505;44.022;20.458;2023-01-19T14:48:20;6.75;6.00;3.25
67714;PMS7003;54505;44.022;20.458;2023-01-19T14:50:47;3.25;3.25;2.00
67714;PMS7003;54505;44.022;20.458;2023-01-19T14:53:24;8.25;5.50;4.00
67714;PMS7003;54505;44.022;20.458;2023-01-19T14:58:21;10.00;10.00;5.50
67714;PMS7003;54505;44.022;20.458;2023-01-19T15:00:48;12.25;12.00;10.00
67714;PMS7003;54505;44.022;20.458;2023-01-19T15:03:14;12.50;11.00;6.00
67714;PMS7003;54505;44.022;20.458;2023-01-19T15:05:43;13.75;12.00;7.00
67714;PMS7003;54505;44.022;20.458;2023-01-19T15:08:11;10.25;8.75;5.75
67714;PMS7003;54505;44.022;20.458;2023-01-19T15:10:39;5.50;5.50;4.75
67714;PMS7003;54505;44.022;20.458;2023-01-19T15:13:05;7.50;6.25;4.00
67714;PMS7003;54505;44.022;20.458;2023-01-19T15:15:31;10.25;6.50;4.00
67714;PMS7003;54505;44.022;20.458;2023-01-19T15:17:58;10.25;7.00;5.00
67714;PMS7003;54505;44.022;20.458;2023-01-19T15:20:24;12.00;12.00;8.75
67714;PMS7003;54505;44.022;20.458;2023-01-19T15:22:50;8.00;6.25;5.25
67714;PMS7003;54505;44.022;20.458;2023-01-19T15:25:20;7.75;7.00;6.00